createdAt,value
2023-05-15T00:01:23.351Z,12.00
2023-05-15T00:03:51.702Z,10.00
2023-05-15T00:06:18.709Z,9.40
2023-05-15T00:08:45.345Z,9.90
2023-05-15T00:11:12.147Z,10.60
2023-05-15T00:13:38.674Z,10.10
2023-05-15T00:16:08.259Z,12.00
2023-05-15T00:18:34.943Z,10.30
2023-05-15T00:21:01.662Z,10.20
2023-05-15T00:23:28.322Z,9.50
2023-05-15T00:25:55.009Z,11.20
2023-05-15T00:28:21.555Z,10.30
2023-05-15T00:30:48.318Z,10.90
2023-05-15T00:33:14.784Z,10.10
2023-05-15T00:35:41.240Z,11.50
2023-05-15T00:38:07.654Z,10.60
2023-05-15T00:40:35.565Z,12.00
2023-05-15T00:43:03.087Z,11.80
2023-05-15T00:45:30.613Z,10.60
2023-05-15T00:47:58.843Z,10.80
2023-05-15T00:50:26.167Z,11.90
2023-05-15T00:52:53.470Z,11.40
2023-05-15T00:55:19.954Z,10.80
2023-05-15T00:57:48.102Z,10.80
2023-05-15T01:00:18.518Z,12.70
2023-05-15T01:02:46.198Z,11.50
2023-05-15T01:05:13.489Z,11.40
2023-05-15T01:07:57.149Z,12.00
2023-05-15T01:10:23.917Z,11.30
2023-05-15T01:12:54.248Z,10.90
2023-05-15T01:15:20.815Z,11.10
2023-05-15T01:17:47.466Z,12.50
2023-05-15T01:20:18.358Z,12.90
2023-05-15T01:22:55.472Z,12.00
2023-05-15T01:25:57.420Z,13.70
2023-05-15T01:28:33.885Z,13.60
2023-05-15T01:31:10.761Z,11.50
2023-05-15T01:33:42.814Z,14.00
2023-05-15T01:36:21.623Z,12.80
2023-05-15T01:38:55.787Z,11.50
2023-05-15T01:41:30.452Z,13.20
2023-05-15T01:44:07.032Z,12.90
2023-05-15T01:46:38.340Z,11.80
2023-05-15T01:49:09.556Z,13.40
2023-05-15T01:51:38.238Z,13.50
2023-05-15T01:54:06.713Z,12.40
2023-05-15T01:56:35.086Z,11.10
2023-05-15T01:59:04.547Z,12.40
2023-05-15T02:01:33.292Z,13.40
2023-05-15T02:04:01.533Z,11.70
2023-05-15T02:06:29.750Z,11.60
2023-05-15T02:08:58.607Z,12.80
2023-05-15T02:11:25.579Z,13.60
2023-05-15T02:13:53.114Z,13.20
2023-05-15T02:16:19.976Z,14.30
2023-05-15T02:18:46.777Z,12.30
2023-05-15T02:21:13.409Z,12.10
2023-05-15T02:23:40.905Z,11.80
2023-05-15T02:26:16.523Z,12.70
2023-05-15T02:28:55.007Z,13.70
2023-05-15T02:32:03.492Z,11.80
2023-05-15T02:34:49.465Z,12.20
2023-05-15T02:37:19.851Z,12.00
2023-05-15T02:39:47.380Z,12.20
2023-05-15T02:42:15.543Z,14.70
2023-05-15T02:44:44.265Z,12.50
2023-05-15T02:47:12.046Z,14.40
2023-05-15T02:49:39.862Z,12.30
2023-05-15T02:52:06.827Z,13.20
2023-05-15T02:54:33.314Z,14.00
2023-05-15T02:57:00.270Z,13.40
2023-05-15T02:59:27.027Z,13.10
2023-05-15T03:01:53.824Z,12.40
2023-05-15T03:04:20.965Z,12.20
2023-05-15T03:06:47.787Z,13.60
2023-05-15T03:09:14.779Z,12.80
2023-05-15T03:11:41.566Z,12.30
2023-05-15T03:14:08.004Z,11.90
2023-05-15T03:16:36.886Z,14.30
2023-05-15T03:19:03.943Z,12.70
2023-05-15T03:21:30.906Z,12.60
2023-05-15T03:23:57.811Z,13.30
2023-05-15T03:26:24.568Z,14.50
2023-05-15T03:28:51.271Z,13.20
2023-05-15T03:31:17.792Z,15.80
2023-05-15T03:33:45.852Z,12.50
2023-05-15T03:36:12.544Z,13.30
2023-05-15T03:38:39.142Z,15.00
2023-05-15T03:41:05.780Z,13.90
2023-05-15T03:43:32.397Z,16.40
2023-05-15T03:45:59.327Z,14.10
2023-05-15T03:48:25.995Z,14.30
2023-05-15T03:50:52.938Z,16.40
2023-05-15T03:53:19.565Z,15.80
2023-05-15T03:55:46.055Z,13.90
2023-05-15T03:58:12.641Z,14.20
2023-05-15T04:00:39.532Z,14.80
2023-05-15T04:03:06.352Z,16.80
2023-05-15T04:05:33.160Z,15.20
2023-05-15T04:07:59.628Z,15.40
2023-05-15T04:10:26.512Z,14.50
2023-05-15T04:12:53.330Z,15.20
2023-05-15T04:15:23.039Z,15.00
2023-05-15T04:17:51.844Z,16.00
2023-05-15T04:20:20.562Z,16.20
2023-05-15T04:22:47.698Z,15.80
2023-05-15T04:25:15.003Z,15.70
2023-05-15T04:27:42.694Z,14.70
2023-05-15T04:30:09.981Z,13.50
2023-05-15T04:32:37.561Z,14.60
2023-05-15T04:35:12.304Z,20.30
2023-05-15T04:37:43.272Z,21.00
2023-05-15T04:40:10.689Z,23.10
2023-05-15T04:42:39.143Z,21.30
2023-05-15T04:45:07.454Z,27.00
2023-05-15T04:47:34.146Z,27.20
2023-05-15T04:50:00.925Z,33.30
2023-05-15T04:52:27.491Z,23.90
2023-05-15T04:54:55.806Z,24.60
2023-05-15T04:57:23.001Z,18.30
2023-05-15T04:59:49.818Z,25.60
2023-05-15T05:02:16.430Z,15.90
2023-05-15T05:04:45.345Z,10.70
2023-05-15T05:07:11.945Z,13.50
2023-05-15T05:09:40.072Z,10.10
2023-05-15T05:12:09.926Z,9.80
2023-05-15T05:14:37.177Z,9.50
2023-05-15T05:17:04.231Z,10.60
2023-05-15T05:19:31.055Z,9.80
2023-05-15T05:22:01.340Z,11.60
2023-05-15T05:24:28.414Z,9.40
2023-05-15T05:26:55.261Z,12.00
2023-05-15T05:29:21.753Z,9.60
2023-05-15T05:31:48.353Z,10.60
2023-05-15T05:34:15.024Z,10.80
2023-05-15T05:36:41.514Z,11.50
2023-05-15T05:39:08.325Z,9.70
2023-05-15T05:41:35.536Z,9.70
2023-05-15T05:44:02.138Z,12.10
2023-05-15T05:46:29.635Z,12.00
2023-05-15T05:48:56.134Z,12.40
2023-05-15T05:51:22.735Z,13.50
2023-05-15T05:53:49.428Z,12.60
2023-05-15T05:56:16.390Z,13.90
2023-05-15T05:58:43.165Z,9.50
2023-05-15T06:01:10.531Z,9.50
2023-05-15T06:03:38.849Z,9.90
2023-05-15T06:06:05.967Z,11.30
2023-05-15T06:08:32.519Z,9.60
2023-05-15T06:10:59.274Z,10.30
2023-05-15T06:13:25.797Z,11.10
2023-05-15T06:15:52.536Z,8.40
2023-05-15T06:18:18.994Z,10.10
2023-05-15T06:20:46.826Z,7.30
2023-05-15T06:23:13.427Z,7.90
2023-05-15T06:25:40.170Z,8.10
2023-05-15T06:28:06.714Z,7.20
2023-05-15T06:30:33.308Z,11.90
2023-05-15T06:33:00.023Z,9.20
2023-05-15T06:35:26.756Z,15.50
2023-05-15T06:37:53.420Z,13.30
2023-05-15T06:40:20.932Z,11.20
2023-05-15T06:42:47.697Z,10.20
2023-05-15T06:45:14.262Z,9.30
2023-05-15T06:47:40.860Z,11.80
2023-05-15T06:50:07.917Z,11.30
2023-05-15T06:52:34.463Z,12.70
2023-05-15T06:55:01.276Z,16.60
2023-05-15T06:57:27.982Z,15.20
2023-05-15T06:59:54.497Z,25.50
2023-05-15T07:02:20.957Z,16.40
2023-05-15T07:04:47.640Z,17.40
2023-05-15T07:07:14.325Z,14.40
2023-05-15T07:09:41.178Z,16.80
2023-05-15T07:12:08.024Z,12.40
2023-05-15T07:14:34.560Z,11.60
2023-05-15T07:17:00.998Z,14.70
2023-05-15T07:19:27.615Z,15.20
2023-05-15T07:21:54.168Z,15.30
2023-05-15T07:24:20.759Z,9.50
2023-05-15T07:26:58.171Z,10.90
2023-05-15T07:29:25.870Z,11.60
2023-05-15T07:31:52.701Z,6.70
2023-05-15T07:34:19.702Z,8.30
2023-05-15T07:36:46.223Z,8.80
2023-05-15T07:39:13.176Z,10.80
2023-05-15T07:41:39.896Z,10.10
2023-05-15T07:44:06.631Z,8.20
2023-05-15T07:46:35.203Z,15.60
2023-05-15T07:49:01.895Z,18.20
2023-05-15T07:51:28.540Z,12.10
2023-05-15T07:53:55.053Z,12.50
2023-05-15T07:56:24.186Z,11.80
2023-05-15T07:58:50.704Z,11.20
2023-05-15T08:01:17.373Z,13.40
2023-05-15T08:03:44.016Z,10.40
2023-05-15T08:06:11.003Z,11.20
2023-05-15T08:08:37.511Z,10.60
2023-05-15T08:11:04.278Z,10.70
2023-05-15T08:13:30.919Z,9.00
2023-05-15T08:15:57.507Z,8.90
2023-05-15T08:18:24.140Z,14.70
2023-05-15T08:20:50.622Z,7.90
2023-05-15T08:23:17.106Z,10.30
2023-05-15T08:25:43.719Z,9.70
2023-05-15T08:28:11.069Z,8.70
2023-05-15T08:30:37.888Z,10.10
2023-05-15T08:33:04.872Z,8.30
2023-05-15T08:35:31.513Z,7.70
2023-05-15T08:37:59.103Z,8.80
2023-05-15T08:43:03.223Z,7.80
2023-05-15T08:45:30.596Z,7.60
2023-05-15T08:48:00.368Z,7.80
2023-05-15T08:50:28.502Z,7.00
2023-05-15T08:52:58.341Z,10.80
2023-05-15T08:55:25.547Z,10.10
2023-05-15T08:57:54.579Z,8.40
2023-05-15T09:00:22.303Z,8.50
2023-05-15T09:02:48.948Z,7.30
2023-05-15T09:05:15.725Z,7.30
2023-05-15T09:07:45.112Z,8.70
2023-05-15T09:10:13.912Z,9.40
2023-05-15T09:12:46.948Z,8.20
2023-05-15T09:15:17.576Z,5.70
2023-05-15T09:17:45.579Z,8.80
2023-05-15T09:20:35.483Z,6.20
2023-05-15T09:23:03.859Z,6.50
2023-05-15T09:25:34.693Z,3.70
2023-05-15T09:28:01.670Z,4.90
2023-05-15T09:30:28.421Z,6.80
2023-05-15T09:33:01.162Z,6.00
2023-05-15T09:35:38.339Z,6.70
2023-05-15T09:38:10.410Z,6.30
2023-05-15T09:40:38.423Z,5.80
2023-05-15T09:43:05.734Z,8.00
2023-05-15T09:45:32.255Z,5.20
2023-05-15T09:48:05.001Z,8.20
2023-05-15T09:50:39.554Z,7.00
2023-05-15T09:53:07.056Z,4.70
2023-05-15T09:55:37.054Z,5.10
2023-05-15T09:58:12.174Z,6.10
2023-05-15T10:00:48.751Z,8.50
2023-05-15T10:03:18.928Z,5.30
2023-05-15T10:05:45.687Z,5.60
2023-05-15T10:08:12.705Z,6.70
2023-05-15T10:10:39.501Z,5.40
2023-05-15T10:13:08.316Z,5.80
2023-05-15T10:15:35.924Z,5.80
2023-05-15T10:18:05.014Z,5.80
2023-05-15T10:20:35.279Z,5.00
2023-05-15T10:23:04.906Z,5.60
2023-05-15T10:26:03.203Z,4.60
2023-05-15T10:28:31.653Z,6.20
2023-05-15T10:31:01.310Z,7.50
2023-05-15T10:33:29.449Z,8.60
2023-05-15T10:35:57.239Z,6.10
2023-05-15T10:38:24.848Z,4.10
2023-05-15T10:40:57.676Z,7.10
2023-05-15T10:43:30.452Z,5.70
2023-05-15T10:45:57.906Z,5.50
2023-05-15T10:48:26.453Z,6.90
2023-05-15T10:50:53.048Z,6.80
2023-05-15T10:53:20.790Z,6.20
2023-05-15T10:55:49.748Z,5.70
2023-05-15T10:58:16.378Z,8.10
2023-05-15T11:00:45.212Z,5.10
2023-05-15T11:03:16.016Z,6.00
2023-05-15T11:06:11.284Z,6.30
2023-05-15T11:08:39.613Z,5.30
2023-05-15T11:11:06.796Z,6.80
2023-05-15T11:14:21.345Z,4.80
2023-05-15T11:16:53.901Z,6.30
2023-05-15T11:19:29.485Z,7.00
2023-05-15T11:22:08.250Z,5.40
2023-05-15T11:25:12.510Z,5.80
2023-05-15T11:27:42.100Z,6.10
2023-05-15T11:30:22.336Z,7.10
2023-05-15T11:33:03.759Z,7.20
2023-05-15T11:35:35.341Z,5.90
2023-05-15T11:38:14.249Z,7.20
2023-05-15T11:40:48.226Z,6.10
2023-05-15T11:43:23.302Z,4.50
2023-05-15T11:45:58.362Z,6.50
2023-05-15T11:48:31.325Z,7.60
2023-05-15T11:50:57.914Z,5.90
2023-05-15T11:53:24.816Z,5.90
2023-05-15T11:55:53.167Z,5.90
2023-05-15T11:58:21.300Z,5.80
2023-05-15T12:00:49.765Z,7.10
2023-05-15T12:03:19.258Z,5.80
2023-05-15T12:05:57.633Z,6.20
2023-05-15T12:08:27.019Z,5.20
2023-05-15T12:10:53.587Z,7.60
2023-05-15T12:13:19.974Z,7.40
2023-05-15T12:15:47.143Z,6.70
2023-05-15T12:18:14.070Z,7.00
2023-05-15T12:20:47.498Z,6.50
2023-05-15T12:23:18.085Z,7.00
2023-05-15T12:25:47.075Z,5.80
2023-05-15T12:28:14.491Z,7.00
2023-05-15T12:30:42.269Z,6.00
2023-05-15T12:33:10.520Z,6.00
2023-05-15T12:35:42.111Z,6.60
2023-05-15T12:38:08.909Z,5.10
2023-05-15T12:40:36.783Z,6.00
2023-05-15T12:43:07.695Z,5.80
2023-05-15T12:45:36.289Z,4.20
2023-05-15T12:48:03.442Z,7.30
2023-05-15T12:50:32.955Z,4.70
2023-05-15T12:53:02.654Z,4.50
2023-05-15T12:55:33.838Z,5.60
2023-05-15T12:58:08.621Z,6.00
2023-05-15T13:00:37.276Z,5.60
2023-05-15T13:03:05.005Z,6.40
2023-05-15T13:05:33.065Z,5.70
2023-05-15T13:08:00.387Z,5.30
2023-05-15T13:10:27.309Z,6.30
2023-05-15T13:12:55.684Z,7.90
2023-05-15T13:15:29.936Z,5.80
2023-05-15T13:18:01.499Z,5.90
2023-05-15T13:20:30.086Z,8.00
2023-05-15T13:22:56.892Z,4.90
2023-05-15T13:25:23.380Z,5.60
2023-05-15T13:27:50.776Z,5.40
2023-05-15T13:30:18.361Z,4.80
2023-05-15T13:32:45.608Z,5.30
2023-05-15T13:35:12.095Z,6.30
2023-05-15T13:37:38.878Z,5.30
2023-05-15T13:40:11.848Z,4.40
2023-05-15T13:42:40.463Z,5.50
2023-05-15T13:45:08.626Z,4.60
2023-05-15T13:47:35.408Z,6.70
2023-05-15T13:50:03.316Z,4.50
2023-05-15T13:52:29.809Z,6.00
2023-05-15T13:54:56.293Z,4.10
2023-05-15T13:57:22.789Z,6.10
2023-05-15T13:59:49.612Z,5.40
2023-05-15T14:02:16.584Z,5.10
2023-05-15T14:04:43.501Z,6.50
2023-05-15T14:07:10.234Z,5.40
2023-05-15T14:09:36.702Z,6.90
2023-05-15T14:12:03.238Z,6.30
2023-05-15T14:14:29.693Z,10.60
2023-05-15T14:16:56.526Z,8.70
2023-05-15T14:19:23.232Z,8.10
2023-05-15T14:21:49.745Z,6.10
2023-05-15T14:24:16.468Z,7.30
2023-05-15T14:26:44.355Z,6.80
2023-05-15T14:29:11.892Z,5.40
2023-05-15T14:31:38.443Z,4.60
2023-05-15T14:34:06.092Z,5.90
2023-05-15T14:36:32.769Z,4.60
2023-05-15T14:39:00.572Z,6.30
2023-05-15T14:41:28.217Z,5.30
2023-05-15T14:43:54.666Z,3.60
2023-05-15T14:46:21.207Z,3.40
2023-05-15T14:48:47.919Z,4.20
2023-05-15T14:51:14.999Z,4.90
2023-05-15T14:53:41.954Z,4.70
2023-05-15T14:56:08.578Z,4.40
2023-05-15T14:58:35.097Z,4.00
2023-05-15T15:01:02.954Z,7.00
2023-05-15T15:03:31.874Z,3.80
2023-05-15T15:06:00.621Z,5.80
2023-05-15T15:08:27.181Z,4.40
2023-05-15T15:10:53.659Z,5.40
2023-05-15T15:13:20.190Z,3.30
2023-05-15T15:15:46.701Z,3.50
2023-05-15T15:18:13.389Z,3.30
2023-05-15T15:20:41.276Z,4.40
2023-05-15T15:23:07.801Z,4.30
2023-05-15T15:25:34.494Z,3.20
2023-05-15T15:28:02.451Z,4.20
2023-05-15T15:30:29.266Z,3.20
2023-05-15T15:32:56.060Z,2.90
2023-05-15T15:35:23.325Z,4.20
2023-05-15T15:37:49.970Z,2.30
2023-05-15T15:40:16.590Z,2.40
2023-05-15T15:42:43.304Z,3.10
2023-05-15T15:45:09.994Z,4.10
2023-05-15T15:47:36.679Z,3.20
2023-05-15T15:50:03.308Z,3.30
2023-05-15T15:52:30.070Z,3.20
2023-05-15T15:54:56.854Z,4.20
2023-05-15T15:57:23.486Z,4.10
2023-05-15T15:59:50.162Z,4.80
2023-05-15T16:02:17.497Z,4.80
2023-05-15T16:04:43.944Z,5.10
2023-05-15T16:07:10.718Z,5.00
2023-05-15T16:09:37.170Z,4.10
2023-05-15T16:12:03.971Z,5.10
2023-05-15T16:14:31.660Z,4.70
2023-05-15T16:16:58.594Z,7.00
2023-05-15T16:19:25.309Z,4.50
2023-05-15T16:21:51.908Z,5.90
2023-05-15T16:24:18.553Z,8.60
2023-05-15T16:26:45.117Z,10.50
2023-05-15T16:29:11.807Z,7.50
2023-05-15T16:31:38.606Z,6.80
2023-05-15T16:34:05.714Z,6.30
2023-05-15T16:36:32.414Z,6.40
2023-05-15T16:39:00.418Z,5.80
2023-05-15T16:41:27.246Z,5.10
2023-05-15T16:43:53.938Z,4.70
2023-05-15T16:46:20.815Z,5.60
2023-05-15T16:48:47.819Z,4.80
2023-05-15T16:51:14.473Z,5.20
2023-05-15T16:53:41.202Z,10.30
2023-05-15T16:56:08.329Z,6.70
2023-05-15T16:58:34.799Z,7.30
2023-05-15T17:01:01.394Z,9.00
2023-05-15T17:03:28.071Z,3.70
2023-05-15T17:05:54.920Z,4.80
2023-05-15T17:08:21.648Z,3.80
2023-05-15T17:10:48.754Z,6.70
2023-05-15T17:13:15.928Z,4.50
2023-05-15T17:15:42.633Z,5.70
2023-05-15T17:18:09.152Z,5.30
2023-05-15T17:20:35.958Z,4.40
2023-05-15T17:23:02.538Z,3.30
2023-05-15T17:25:29.174Z,4.70
2023-05-15T17:27:55.770Z,4.90
2023-05-15T17:30:22.358Z,5.30
2023-05-15T17:32:49.386Z,4.30
2023-05-15T17:35:15.880Z,5.50
2023-05-15T17:37:42.622Z,4.10
2023-05-15T17:40:09.462Z,4.20
2023-05-15T17:42:36.133Z,5.90
2023-05-15T17:45:04.334Z,5.50
2023-05-15T17:47:30.935Z,4.60
2023-05-15T17:49:57.549Z,5.20
2023-05-15T17:52:24.214Z,6.00
2023-05-15T17:54:50.959Z,5.70
2023-05-15T17:57:17.382Z,5.00
2023-05-15T17:59:44.017Z,5.50
2023-05-15T18:02:10.538Z,8.30
2023-05-15T18:04:36.963Z,6.80
2023-05-15T18:07:03.498Z,7.30
2023-05-15T18:09:30.039Z,5.90
2023-05-15T18:11:58.826Z,6.60
2023-05-15T18:14:25.453Z,6.10
2023-05-15T18:16:52.090Z,4.90
2023-05-15T18:19:18.827Z,5.70
2023-05-15T18:21:45.611Z,6.50
2023-05-15T18:24:12.296Z,5.20
2023-05-15T18:26:38.982Z,6.50
2023-05-15T18:29:05.641Z,5.50
2023-05-15T18:31:32.479Z,6.10
2023-05-15T18:34:01.281Z,5.10
2023-05-15T18:36:28.151Z,4.30
2023-05-15T18:38:54.594Z,7.80
2023-05-15T18:41:21.279Z,5.60
2023-05-15T18:43:48.059Z,7.10
2023-05-15T18:46:14.594Z,5.30
2023-05-15T18:48:41.397Z,6.40
2023-05-15T18:51:10.473Z,5.10
2023-05-15T18:53:37.045Z,5.00
2023-05-15T18:56:04.517Z,6.80
2023-05-15T18:58:31.169Z,7.40
2023-05-15T19:00:58.283Z,4.20
2023-05-15T19:03:26.014Z,6.70
2023-05-15T19:05:52.768Z,5.80
2023-05-15T19:08:19.416Z,5.20
2023-05-15T19:10:49.228Z,4.80
2023-05-15T19:13:15.668Z,4.10
2023-05-15T19:15:53.869Z,6.30
2023-05-15T19:18:20.663Z,4.60
2023-05-15T19:20:50.487Z,4.50
2023-05-15T19:23:17.177Z,4.80
2023-05-15T19:25:45.085Z,5.60
2023-05-15T19:28:12.907Z,5.10
2023-05-15T19:30:39.336Z,5.20
2023-05-15T19:33:05.929Z,5.20
2023-05-15T19:35:33.252Z,8.90
2023-05-15T19:38:01.326Z,6.10
2023-05-15T19:40:27.958Z,6.70
2023-05-15T19:42:54.930Z,6.00
2023-05-15T19:45:21.354Z,5.50
2023-05-15T19:47:47.999Z,6.30
2023-05-15T19:50:14.600Z,6.10
2023-05-15T19:52:42.411Z,7.80
2023-05-15T19:55:10.875Z,4.80
2023-05-15T19:57:40.201Z,6.60
2023-05-15T20:00:08.031Z,5.10
2023-05-15T20:02:34.857Z,6.40
2023-05-15T20:05:01.506Z,6.80
2023-05-15T20:07:28.341Z,4.30
2023-05-15T20:09:55.600Z,5.80
2023-05-15T20:12:21.992Z,7.00
2023-05-15T20:14:49.694Z,5.60
2023-05-15T20:17:16.967Z,6.30
2023-05-15T20:19:43.563Z,7.00
2023-05-15T20:22:10.469Z,7.00
2023-05-15T20:24:38.662Z,8.10
2023-05-15T20:27:05.703Z,6.70
2023-05-15T20:29:32.940Z,6.80
2023-05-15T20:31:59.685Z,6.00
2023-05-15T20:34:26.399Z,7.60
2023-05-15T20:36:52.955Z,9.10
2023-05-15T20:39:19.886Z,6.90
2023-05-15T20:41:46.634Z,7.40
2023-05-15T20:44:13.484Z,7.20
2023-05-15T20:46:40.762Z,7.90
2023-05-15T20:49:07.224Z,7.50
2023-05-15T20:51:33.959Z,10.00
2023-05-15T20:54:00.560Z,10.20
2023-05-15T20:56:27.100Z,8.10
2023-05-15T20:58:53.494Z,8.30
2023-05-15T21:01:20.159Z,9.40
2023-05-15T21:03:46.696Z,8.90
2023-05-15T21:06:14.361Z,8.50
2023-05-15T21:08:40.887Z,10.60
2023-05-15T21:11:07.516Z,9.70
2023-05-15T21:13:33.955Z,12.60
2023-05-15T21:16:00.534Z,11.10
2023-05-15T21:18:26.998Z,12.40
2023-05-15T21:20:53.411Z,12.50
2023-05-15T21:23:21.229Z,11.40
2023-05-15T21:25:47.894Z,12.80
2023-05-15T21:28:14.554Z,12.90
2023-05-15T21:30:41.128Z,11.80
2023-05-15T21:33:07.730Z,13.10
2023-05-15T21:35:34.884Z,13.90
2023-05-15T21:38:02.048Z,11.30
2023-05-15T21:40:28.906Z,14.20
2023-05-15T21:42:55.791Z,12.50
2023-05-15T21:45:22.291Z,14.50
2023-05-15T21:47:48.830Z,12.70
2023-05-15T21:50:15.310Z,13.40
2023-05-15T21:52:41.989Z,14.50
2023-05-15T21:55:08.965Z,14.60
2023-05-15T21:57:35.628Z,15.40
2023-05-15T22:00:02.657Z,16.80
2023-05-15T22:02:29.289Z,15.40
2023-05-15T22:04:55.867Z,14.30
2023-05-15T22:07:22.289Z,13.30
2023-05-15T22:09:48.859Z,16.60
2023-05-15T22:12:15.420Z,13.20
2023-05-15T22:14:57.106Z,12.60
2023-05-15T22:17:26.416Z,10.30
2023-05-15T22:19:53.440Z,13.40
2023-05-15T22:22:21.017Z,11.00
2023-05-15T22:24:47.895Z,10.40
2023-05-15T22:27:16.551Z,11.00
2023-05-15T22:29:43.101Z,9.50
2023-05-15T22:32:09.675Z,11.40
2023-05-15T22:34:36.444Z,10.70
2023-05-15T22:37:02.871Z,11.70
2023-05-15T22:39:29.382Z,11.00
2023-05-15T22:41:55.945Z,9.40
2023-05-15T22:44:22.605Z,8.80
2023-05-15T22:46:49.596Z,11.30
2023-05-15T22:49:19.265Z,12.40
2023-05-15T22:51:46.899Z,11.50
2023-05-15T22:54:13.417Z,11.20
2023-05-15T22:56:40.157Z,11.50
2023-05-15T22:59:06.769Z,10.70
2023-05-15T23:01:33.236Z,11.80
2023-05-15T23:03:59.779Z,11.70
2023-05-15T23:06:26.260Z,10.50
2023-05-15T23:08:52.969Z,11.10
2023-05-15T23:11:20.407Z,13.00
2023-05-15T23:13:47.195Z,10.30
2023-05-15T23:16:13.871Z,13.10
2023-05-15T23:18:40.602Z,13.50
2023-05-15T23:21:07.187Z,13.80
2023-05-15T23:23:33.648Z,13.50
2023-05-15T23:26:00.362Z,12.40
2023-05-15T23:28:27.068Z,16.40
2023-05-15T23:30:54.215Z,13.80
2023-05-15T23:33:21.153Z,15.90
2023-05-15T23:35:48.013Z,15.50
2023-05-15T23:38:14.571Z,17.50
2023-05-15T23:40:41.017Z,16.70
2023-05-15T23:43:07.743Z,17.50
2023-05-15T23:45:34.932Z,15.60
2023-05-15T23:48:01.641Z,14.00
2023-05-15T23:50:28.648Z,10.70
2023-05-15T23:52:55.374Z,6.30
2023-05-15T23:55:21.891Z,7.50
2023-05-15T23:57:48.516Z,7.30
